sensor_id;sensor_type;location;lat;lon;timestamp;pressure;altitude;pressure_sealevel;temperature;humidity
13734;BME280;43298;52.560;13.508;2023-06-10T00:02:10;101025.19;;;16.15;100.00
13734;BME280;43298;52.560;13.508;2023-06-10T00:04:36;101034.56;;;16.03;100.00
13734;BME280;43298;52.560;13.508;2023-06-10T00:07:05;101016.78;;;15.96;100.00
13734;BME280;43298;52.560;13.508;2023-06-10T00:09:37;101026.66;;;16.05;100.00
13734;BME280;43298;52.560;13.508;2023-06-10T00:12:09;101026.53;;;15.92;100.00
13734;BME280;43298;52.560;13.508;2023-06-10T00:14:40;101020.03;;;15.99;100.00
13734;BME280;43298;52.560;13.508;2023-06-10T00:17:09;101019.09;;;16.14;100.00
13734;BME280;43298;52.560;13.508;2023-06-10T00:19:36;101018.66;;;16.08;100.00
13734;BME280;43298;52.560;13.508;2023-06-10T00:22:02;101029.69;;;15.97;100.00
13734;BME280;43298;52.560;13.508;2023-06-10T00:24:29;101028.22;;;16.07;100.00
13734;BME280;43298;52.560;13.508;2023-06-10T00:26:55;101013.69;;;16.03;100.00
13734;BME280;43298;52.560;13.508;2023-06-10T00:29:21;101018.38;;;16.12;100.00
13734;BME280;43298;52.560;13.508;2023-06-10T00:31:47;101014.75;;;16.15;100.00
13734;BME280;43298;52.560;13.508;2023-06-10T00:34:13;101024.22;;;16.16;100.00
13734;BME280;43298;52.560;13.508;2023-06-10T00:36:40;101013.59;;;16.05;100.00
13734;BME280;43298;52.560;13.508;2023-06-10T00:39:06;101018.44;;;15.97;100.00
13734;BME280;43298;52.560;13.508;2023-06-10T00:41:33;101020.03;;;15.99;100.00
13734;BME280;43298;52.560;13.508;2023-06-10T00:44:00;101009.69;;;15.98;100.00
13734;BME280;43298;52.560;13.508;2023-06-10T00:46:26;101023.38;;;15.87;100.00
13734;BME280;43298;52.560;13.508;2023-06-10T00:48:53;101022.22;;;15.77;100.00
13734;BME280;43298;52.560;13.508;2023-06-10T00:51:19;101014.56;;;15.74;100.00
13734;BME280;43298;52.560;13.508;2023-06-10T00:53:46;101009.91;;;15.79;100.00
13734;BME280;43298;52.560;13.508;2023-06-10T00:56:13;101015.34;;;15.76;100.00
13734;BME280;43298;52.560;13.508;2023-06-10T00:58:41;101024.88;;;15.62;100.00
13734;BME280;43298;52.560;13.508;2023-06-10T01:01:07;101024.66;;;15.51;100.00
13734;BME280;43298;52.560;13.508;2023-06-10T01:03:37;101025.22;;;15.56;100.00
13734;BME280;43298;52.560;13.508;2023-06-10T01:06:09;101024.44;;;15.40;100.00
13734;BME280;43298;52.560;13.508;2023-06-10T01:08:50;101024.47;;;15.54;100.00
13734;BME280;43298;52.560;13.508;2023-06-10T01:11:23;101027.22;;;15.37;100.00
13734;BME280;43298;52.560;13.508;2023-06-10T01:13:51;101034.94;;;15.38;100.00
13734;BME280;43298;52.560;13.508;2023-06-10T01:16:22;101029.72;;;15.38;100.00
13734;BME280;43298;52.560;13.508;2023-06-10T01:18:48;101029.88;;;15.35;100.00
13734;BME280;43298;52.560;13.508;2023-06-10T01:21:22;101017.84;;;15.33;100.00
13734;BME280;43298;52.560;13.508;2023-06-10T01:23:54;101029.94;;;15.34;100.00
13734;BME280;43298;52.560;13.508;2023-06-10T01:26:29;101036.69;;;15.22;100.00
13734;BME280;43298;52.560;13.508;2023-06-10T01:29:11;101031.13;;;15.28;100.00
13734;BME280;43298;52.560;13.508;2023-06-10T01:32:11;101033.41;;;15.34;100.00
13734;BME280;43298;52.560;13.508;2023-06-10T01:34:39;101032.63;;;15.32;100.00
13734;BME280;43298;52.560;13.508;2023-06-10T01:37:10;101037.63;;;15.37;100.00
13734;BME280;43298;52.560;13.508;2023-06-10T01:39:42;101034.59;;;15.29;100.00
13734;BME280;43298;52.560;13.508;2023-06-10T01:42:11;101034.16;;;15.21;100.00
13734;BME280;43298;52.560;13.508;2023-06-10T01:44:40;101033.50;;;15.17;100.00
13734;BME280;43298;52.560;13.508;2023-06-10T01:47:06;101031.53;;;15.21;100.00
13734;BME280;43298;52.560;13.508;2023-06-10T01:49:32;101044.16;;;15.13;100.00
13734;BME280;43298;52.560;13.508;2023-06-10T01:51:58;101034.13;;;15.07;100.00
13734;BME280;43298;52.560;13.508;2023-06-10T01:54:24;101033.75;;;15.13;100.00
13734;BME280;43298;52.560;13.508;2023-06-10T01:56:51;101035.09;;;15.04;100.00
13734;BME280;43298;52.560;13.508;2023-06-10T01:59:17;101037.78;;;15.02;100.00
13734;BME280;43298;52.560;13.508;2023-06-10T02:01:43;101042.25;;;15.00;100.00
13734;BME280;43298;52.560;13.508;2023-06-10T02:04:08;101034.59;;;14.97;100.00
13734;BME280;43298;52.560;13.508;2023-06-10T02:06:34;101043.00;;;15.02;100.00
13734;BME280;43298;52.560;13.508;2023-06-10T02:09:01;101038.63;;;14.87;100.00
13734;BME280;43298;52.560;13.508;2023-06-10T02:11:27;101042.66;;;14.93;100.00
13734;BME280;43298;52.560;13.508;2023-06-10T02:13:52;101040.13;;;14.91;100.00
13734;BME280;43298;52.560;13.508;2023-06-10T02:16:18;101026.09;;;14.94;100.00
13734;BME280;43298;52.560;13.508;2023-06-10T02:18:44;101048.72;;;14.93;100.00
13734;BME280;43298;52.560;13.508;2023-06-10T02:21:10;101048.81;;;14.92;100.00
13734;BME280;43298;52.560;13.508;2023-06-10T02:23:36;101050.28;;;14.80;100.00
13734;BME280;43298;52.560;13.508;2023-06-10T02:26:02;101045.94;;;14.81;100.00
13734;BME280;43298;52.560;13.508;2023-06-10T02:28:28;101054.75;;;14.78;100.00
13734;BME280;43298;52.560;13.508;2023-06-10T02:30:54;101051.72;;;14.86;100.00
13734;BME280;43298;52.560;13.508;2023-06-10T02:33:20;101050.72;;;14.88;100.00
13734;BME280;43298;52.560;13.508;2023-06-10T02:35:45;101052.50;;;14.88;100.00
13734;BME280;43298;52.560;13.508;2023-06-10T02:38:11;101057.00;;;14.69;100.00
13734;BME280;43298;52.560;13.508;2023-06-10T02:40:37;101057.69;;;14.72;100.00
13734;BME280;43298;52.560;13.508;2023-06-10T02:43:03;101048.28;;;14.70;100.00
13734;BME280;43298;52.560;13.508;2023-06-10T02:45:29;101046.19;;;14.76;100.00
13734;BME280;43298;52.560;13.508;2023-06-10T02:47:54;101054.50;;;14.83;100.00
13734;BME280;43298;52.560;13.508;2023-06-10T02:50:21;101051.91;;;14.67;100.00
13734;BME280;43298;52.560;13.508;2023-06-10T02:52:48;101049.28;;;14.67;100.00
13734;BME280;43298;52.560;13.508;2023-06-10T02:55:14;101054.31;;;14.70;100.00
13734;BME280;43298;52.560;13.508;2023-06-10T02:57:40;101054.06;;;14.75;100.00
13734;BME280;43298;52.560;13.508;2023-06-10T03:00:07;101048.78;;;14.76;100.00
13734;BME280;43298;52.560;13.508;2023-06-10T03:02:39;101047.66;;;14.65;100.00
13734;BME280;43298;52.560;13.508;2023-06-10T03:05:06;101049.44;;;14.64;100.00
13734;BME280;43298;52.560;13.508;2023-06-10T03:07:36;101050.00;;;14.54;100.00
13734;BME280;43298;52.560;13.508;2023-06-10T03:10:03;101055.41;;;14.66;100.00
13734;BME280;43298;52.560;13.508;2023-06-10T03:12:29;101053.72;;;14.65;100.00
13734;BME280;43298;52.560;13.508;2023-06-10T03:14:54;101059.41;;;14.56;100.00
13734;BME280;43298;52.560;13.508;2023-06-10T03:17:20;101058.50;;;14.57;100.00
13734;BME280;43298;52.560;13.508;2023-06-10T03:19:46;101055.91;;;14.57;100.00
13734;BME280;43298;52.560;13.508;2023-06-10T03:22:14;101054.53;;;14.50;100.00
13734;BME280;43298;52.560;13.508;2023-06-10T03:24:40;101058.44;;;14.59;100.00
13734;BME280;43298;52.560;13.508;2023-06-10T03:27:10;101064.28;;;14.62;100.00
13734;BME280;43298;52.560;13.508;2023-06-10T03:29:39;101052.72;;;14.68;100.00
13734;BME280;43298;52.560;13.508;2023-06-10T03:32:05;101067.22;;;14.56;100.00
13734;BME280;43298;52.560;13.508;2023-06-10T03:34:31;101067.81;;;14.61;100.00
13734;BME280;43298;52.560;13.508;2023-06-10T03:36:58;101064.53;;;14.58;100.00
13734;BME280;43298;52.560;13.508;2023-06-10T03:39:24;101065.81;;;14.66;100.00
13734;BME280;43298;52.560;13.508;2023-06-10T03:41:50;101064.13;;;14.65;100.00
13734;BME280;43298;52.560;13.508;2023-06-10T03:44:16;101067.81;;;14.61;100.00
13734;BME280;43298;52.560;13.508;2023-06-10T03:46:42;101065.97;;;14.63;100.00
13734;BME280;43298;52.560;13.508;2023-06-10T03:49:08;101069.69;;;14.75;100.00
13734;BME280;43298;52.560;13.508;2023-06-10T03:51:35;101070.63;;;14.74;100.00
13734;BME280;43298;52.560;13.508;2023-06-10T03:54:02;101077.22;;;14.64;100.00
13734;BME280;43298;52.560;13.508;2023-06-10T03:56:28;101076.34;;;14.80;100.00
13734;BME280;43298;52.560;13.508;2023-06-10T03:58:54;101085.16;;;14.78;100.00
13734;BME280;43298;52.560;13.508;2023-06-10T04:01:21;101080.88;;;14.77;100.00
13734;BME280;43298;52.560;13.508;2023-06-10T04:03:47;101075.25;;;14.84;100.00
13734;BME280;43298;52.560;13.508;2023-06-10T04:06:15;101074.66;;;14.79;100.00
13734;BME280;43298;52.560;13.508;2023-06-10T04:08:41;101084.41;;;14.91;100.00
13734;BME280;43298;52.560;13.508;2023-06-10T04:11:08;101079.97;;;14.93;100.00
13734;BME280;43298;52.560;13.508;2023-06-10T04:13:34;101083.31;;;15.11;100.00
13734;BME280;43298;52.560;13.508;2023-06-10T04:16:00;101079.53;;;15.01;100.00
13734;BME280;43298;52.560;13.508;2023-06-10T04:18:27;101077.94;;;14.98;100.00
13734;BME280;43298;52.560;13.508;2023-06-10T04:20:54;101081.91;;;15.05;100.00
13734;BME280;43298;52.560;13.508;2023-06-10T04:23:21;101080.63;;;15.13;100.00
13734;BME280;43298;52.560;13.508;2023-06-10T04:25:46;101082.06;;;15.18;100.00
13734;BME280;43298;52.560;13.508;2023-06-10T04:28:13;101079.22;;;15.23;100.00
13734;BME280;43298;52.560;13.508;2023-06-10T04:30:39;101073.59;;;15.15;100.00
13734;BME280;43298;52.560;13.508;2023-06-10T04:33:05;101084.75;;;15.17;100.00
13734;BME280;43298;52.560;13.508;2023-06-10T04:35:32;101083.50;;;15.24;100.00
13734;BME280;43298;52.560;13.508;2023-06-10T04:37:59;101085.38;;;15.37;100.00
13734;BME280;43298;52.560;13.508;2023-06-10T04:40:28;101084.28;;;15.41;100.00
13734;BME280;43298;52.560;13.508;2023-06-10T04:42:54;101094.19;;;15.50;100.00
13734;BME280;43298;52.560;13.508;2023-06-10T04:45:20;101099.69;;;15.75;100.00
13734;BME280;43298;52.560;13.508;2023-06-10T04:47:46;101097.38;;;15.85;100.00
13734;BME280;43298;52.560;13.508;2023-06-10T04:50:12;101077.16;;;16.04;100.00
13734;BME280;43298;52.560;13.508;2023-06-10T04:52:37;101091.38;;;16.28;100.00
13734;BME280;43298;52.560;13.508;2023-06-10T04:55:04;101105.44;;;16.39;100.00
13734;BME280;43298;52.560;13.508;2023-06-10T04:57:30;101102.06;;;16.67;100.00
13734;BME280;43298;52.560;13.508;2023-06-10T04:59:55;101098.97;;;16.60;100.00
13734;BME280;43298;52.560;13.508;2023-06-10T05:02:21;101101.59;;;16.88;100.00
13734;BME280;43298;52.560;13.508;2023-06-10T05:04:47;101098.03;;;16.75;100.00
13734;BME280;43298;52.560;13.508;2023-06-10T05:07:13;101108.00;;;17.11;100.00
13734;BME280;43298;52.560;13.508;2023-06-10T05:09:39;101102.16;;;17.34;100.00
13734;BME280;43298;52.560;13.508;2023-06-10T05:12:05;101110.13;;;17.59;100.00
13734;BME280;43298;52.560;13.508;2023-06-10T05:14:32;101101.47;;;17.98;100.00
13734;BME280;43298;52.560;13.508;2023-06-10T05:16:58;101110.22;;;17.57;100.00
13734;BME280;43298;52.560;13.508;2023-06-10T05:19:23;101112.84;;;17.97;100.00
13734;BME280;43298;52.560;13.508;2023-06-10T05:21:49;101114.75;;;17.95;100.00
13734;BME280;43298;52.560;13.508;2023-06-10T05:24:15;101113.16;;;18.31;100.00
13734;BME280;43298;52.560;13.508;2023-06-10T05:26:41;101118.28;;;18.33;100.00
13734;BME280;43298;52.560;13.508;2023-06-10T05:29:08;101118.44;;;18.05;100.00
13734;BME280;43298;52.560;13.508;2023-06-10T05:31:36;101120.50;;;18.00;100.00
13734;BME280;43298;52.560;13.508;2023-06-10T05:34:02;101118.38;;;17.79;100.00
13734;BME280;43298;52.560;13.508;2023-06-10T05:36:28;101121.47;;;17.99;100.00
13734;BME280;43298;52.560;13.508;2023-06-10T05:38:54;101122.38;;;17.58;100.00
13734;BME280;43298;52.560;13.508;2023-06-10T05:41:20;101121.38;;;17.73;100.00
13734;BME280;43298;52.560;13.508;2023-06-10T05:43:47;101126.09;;;17.68;100.00
13734;BME280;43298;52.560;13.508;2023-06-10T05:46:13;101112.78;;;17.71;100.00
13734;BME280;43298;52.560;13.508;2023-06-10T05:48:39;101123.03;;;18.01;100.00
13734;BME280;43298;52.560;13.508;2023-06-10T05:51:05;101128.63;;;18.22;100.00
13734;BME280;43298;52.560;13.508;2023-06-10T05:53:32;101123.50;;;18.08;100.00
13734;BME280;43298;52.560;13.508;2023-06-10T05:55:58;101126.69;;;18.38;100.00
13734;BME280;43298;52.560;13.508;2023-06-10T05:58:24;101120.72;;;18.73;100.00
13734;BME280;43298;52.560;13.508;2023-06-10T06:00:50;101123.13;;;18.64;100.00
13734;BME280;43298;52.560;13.508;2023-06-10T06:03:17;101123.47;;;18.72;100.00
13734;BME280;43298;52.560;13.508;2023-06-10T06:05:43;101125.84;;;18.50;100.00
13734;BME280;43298;52.560;13.508;2023-06-10T06:08:10;101127.66;;;18.49;100.00
13734;BME280;43298;52.560;13.508;2023-06-10T06:10:36;101129.72;;;18.57;100.00
13734;BME280;43298;52.560;13.508;2023-06-10T06:13:02;101134.66;;;18.74;100.00
13734;BME280;43298;52.560;13.508;2023-06-10T06:15:28;101135.72;;;18.46;100.00
13734;BME280;43298;52.560;13.508;2023-06-10T06:17:53;101138.13;;;18.49;100.00
13734;BME280;43298;52.560;13.508;2023-06-10T06:20:20;101141.66;;;18.61;100.00
13734;BME280;43298;52.560;13.508;2023-06-10T06:22:46;101142.50;;;18.86;100.00
13734;BME280;43298;52.560;13.508;2023-06-10T06:25:12;101146.78;;;19.00;100.00
13734;BME280;43298;52.560;13.508;2023-06-10T06:27:38;101141.97;;;19.06;100.00
13734;BME280;43298;52.560;13.508;2023-06-10T06:30:05;101143.63;;;19.07;100.00
13734;BME280;43298;52.560;13.508;2023-06-10T06:32:31;101140.25;;;19.18;100.00
13734;BME280;43298;52.560;13.508;2023-06-10T06:34:56;101139.00;;;19.83;100.00
13734;BME280;43298;52.560;13.508;2023-06-10T06:37:25;101142.16;;;19.99;100.00
13734;BME280;43298;52.560;13.508;2023-06-10T06:39:52;101144.09;;;20.20;100.00
13734;BME280;43298;52.560;13.508;2023-06-10T06:42:19;101149.38;;;20.42;100.00
13734;BME280;43298;52.560;13.508;2023-06-10T06:44:48;101155.03;;;20.60;100.00
13734;BME280;43298;52.560;13.508;2023-06-10T06:47:14;101164.28;;;20.07;100.00
13734;BME280;43298;52.560;13.508;2023-06-10T06:49:40;101160.19;;;20.73;100.00
13734;BME280;43298;52.560;13.508;2023-06-10T06:52:06;101163.13;;;21.03;100.00
13734;BME280;43298;52.560;13.508;2023-06-10T06:54:32;101156.53;;;21.08;100.00
13734;BME280;43298;52.560;13.508;2023-06-10T06:56:58;101163.53;;;21.52;100.00
13734;BME280;43298;52.560;13.508;2023-06-10T06:59:24;101159.03;;;22.37;100.00
13734;BME280;43298;52.560;13.508;2023-06-10T07:01:51;101159.81;;;21.97;100.00
13734;BME280;43298;52.560;13.508;2023-06-10T07:04:17;101161.59;;;22.07;100.00
13734;BME280;43298;52.560;13.508;2023-06-10T07:06:45;101161.97;;;22.03;100.00
13734;BME280;43298;52.560;13.508;2023-06-10T07:09:10;101163.16;;;22.30;100.00
13734;BME280;43298;52.560;13.508;2023-06-10T07:11:36;101170.88;;;21.91;100.00
13734;BME280;43298;52.560;13.508;2023-06-10T07:14:02;101175.53;;;21.45;100.00
13734;BME280;43298;52.560;13.508;2023-06-10T07:16:28;101180.19;;;21.30;100.00
13734;BME280;43298;52.560;13.508;2023-06-10T07:18:54;101184.97;;;21.36;100.00
13734;BME280;43298;52.560;13.508;2023-06-10T07:21:20;101191.06;;;21.37;100.00
13734;BME280;43298;52.560;13.508;2023-06-10T07:23:46;101184.63;;;21.19;100.00
13734;BME280;43298;52.560;13.508;2023-06-10T07:26:12;101193.00;;;21.02;100.00
13734;BME280;43298;52.560;13.508;2023-06-10T07:28:40;101191.78;;;20.84;100.00
13734;BME280;43298;52.560;13.508;2023-06-10T07:31:07;101196.06;;;20.85;100.00
13734;BME280;43298;52.560;13.508;2023-06-10T07:33:33;101189.88;;;20.97;100.00
13734;BME280;43298;52.560;13.508;2023-06-10T07:35:58;101193.56;;;22.03;100.00
13734;BME280;43298;52.560;13.508;2023-06-10T07:38:25;101194.47;;;22.44;100.00
13734;BME280;43298;52.560;13.508;2023-06-10T07:40:52;101192.09;;;23.33;100.00
13734;BME280;43298;52.560;13.508;2023-06-10T07:43:18;101185.41;;;24.45;100.00
13734;BME280;43298;52.560;13.508;2023-06-10T07:45:44;101180.13;;;24.35;98.56
13734;BME280;43298;52.560;13.508;2023-06-10T07:48:10;101182.63;;;24.37;96.01
13734;BME280;43298;52.560;13.508;2023-06-10T07:50:36;101185.41;;;24.35;96.24
13734;BME280;43298;52.560;13.508;2023-06-10T07:53:03;101188.72;;;24.66;95.70
13734;BME280;43298;52.560;13.508;2023-06-10T07:55:29;101186.09;;;25.12;93.00
13734;BME280;43298;52.560;13.508;2023-06-10T07:57:55;101190.00;;;24.24;95.14
13734;BME280;43298;52.560;13.508;2023-06-10T08:00:21;101177.19;;;24.48;93.65
13734;BME280;43298;52.560;13.508;2023-06-10T08:02:47;101186.25;;;24.45;92.89
13734;BME280;43298;52.560;13.508;2023-06-10T08:05:13;101180.41;;;24.42;93.06
13734;BME280;43298;52.560;13.508;2023-06-10T08:07:40;101177.72;;;25.16;90.76
13734;BME280;43298;52.560;13.508;2023-06-10T08:10:07;101182.84;;;24.81;90.38
13734;BME280;43298;52.560;13.508;2023-06-10T08:12:34;101188.22;;;25.62;88.97
13734;BME280;43298;52.560;13.508;2023-06-10T08:15:00;101184.41;;;25.11;87.40
13734;BME280;43298;52.560;13.508;2023-06-10T08:17:26;101191.41;;;24.37;91.34
13734;BME280;43298;52.560;13.508;2023-06-10T08:19:52;101194.38;;;25.63;90.45
13734;BME280;43298;52.560;13.508;2023-06-10T08:22:18;101193.72;;;26.14;85.25
13734;BME280;43298;52.560;13.508;2023-06-10T08:24:44;101196.66;;;25.48;84.40
13734;BME280;43298;52.560;13.508;2023-06-10T08:27:10;101202.41;;;25.44;87.20
13734;BME280;43298;52.560;13.508;2023-06-10T08:29:36;101199.31;;;25.48;87.41
13734;BME280;43298;52.560;13.508;2023-06-10T08:32:02;101204.13;;;25.35;87.21
13734;BME280;43298;52.560;13.508;2023-06-10T08:34:28;101201.94;;;24.85;87.41
13734;BME280;43298;52.560;13.508;2023-06-10T08:36:54;101207.38;;;24.83;87.87
13734;BME280;43298;52.560;13.508;2023-06-10T08:39:22;101210.88;;;24.08;90.89
13734;BME280;43298;52.560;13.508;2023-06-10T08:44:38;101221.88;;;24.13;94.41
13734;BME280;43298;52.560;13.508;2023-06-10T08:47:15;101217.00;;;23.99;93.36
13734;BME280;43298;52.560;13.508;2023-06-10T08:49:45;101206.94;;;23.83;94.09
13734;BME280;43298;52.560;13.508;2023-06-10T08:52:19;101213.03;;;23.84;95.52
13734;BME280;43298;52.560;13.508;2023-06-10T08:55:04;101220.00;;;23.26;96.58
13734;BME280;43298;52.560;13.508;2023-06-10T08:57:31;101232.84;;;23.50;98.51
13734;BME280;43298;52.560;13.508;2023-06-10T08:59:57;101232.91;;;23.29;98.79
13734;BME280;43298;52.560;13.508;2023-06-10T09:02:27;101231.47;;;22.95;99.15
13734;BME280;43298;52.560;13.508;2023-06-10T09:04:53;101237.84;;;22.20;100.00
13734;BME280;43298;52.560;13.508;2023-06-10T09:07:21;101236.41;;;22.16;100.00
13734;BME280;43298;52.560;13.508;2023-06-10T09:09:49;101241.28;;;21.89;100.00
13734;BME280;43298;52.560;13.508;2023-06-10T09:12:15;101246.34;;;21.59;100.00
13734;BME280;43298;52.560;13.508;2023-06-10T09:14:42;101243.91;;;21.89;100.00
13734;BME280;43298;52.560;13.508;2023-06-10T09:17:08;101246.31;;;21.81;100.00
13734;BME280;43298;52.560;13.508;2023-06-10T09:19:35;101243.75;;;22.01;100.00
13734;BME280;43298;52.560;13.508;2023-06-10T09:22:02;101246.09;;;22.47;100.00
13734;BME280;43298;52.560;13.508;2023-06-10T09:24:28;101239.41;;;22.43;100.00
13734;BME280;43298;52.560;13.508;2023-06-10T09:27:06;101247.44;;;22.10;100.00
13734;BME280;43298;52.560;13.508;2023-06-10T09:29:54;101247.84;;;22.26;100.00
13734;BME280;43298;52.560;13.508;2023-06-10T09:32:21;101250.06;;;22.10;100.00
13734;BME280;43298;52.560;13.508;2023-06-10T09:34:48;101249.53;;;22.27;100.00
13734;BME280;43298;52.560;13.508;2023-06-10T09:37:21;101251.69;;;21.68;100.00
13734;BME280;43298;52.560;13.508;2023-06-10T09:40:05;101256.91;;;22.44;100.00
13734;BME280;43298;52.560;13.508;2023-06-10T09:42:37;101247.41;;;22.52;100.00
13734;BME280;43298;52.560;13.508;2023-06-10T09:45:05;101243.59;;;22.56;100.00
13734;BME280;43298;52.560;13.508;2023-06-10T09:47:31;101236.63;;;22.55;100.00
13734;BME280;43298;52.560;13.508;2023-06-10T09:49:57;101240.78;;;22.99;100.00
13734;BME280;43298;52.560;13.508;2023-06-10T09:52:28;101238.47;;;23.26;100.00
13734;BME280;43298;52.560;13.508;2023-06-10T09:55:02;101236.13;;;23.33;100.00
13734;BME280;43298;52.560;13.508;2023-06-10T09:57:32;101233.25;;;23.45;100.00
13734;BME280;43298;52.560;13.508;2023-06-10T10:00:20;101239.97;;;23.68;98.27
13734;BME280;43298;52.560;13.508;2023-06-10T10:02:53;101233.00;;;24.07;95.74
13734;BME280;43298;52.560;13.508;2023-06-10T10:05:22;101234.50;;;23.90;92.06
13734;BME280;43298;52.560;13.508;2023-06-10T10:07:48;101232.56;;;24.02;87.52
13734;BME280;43298;52.560;13.508;2023-06-10T10:10:18;101235.66;;;23.58;86.83
13734;BME280;43298;52.560;13.508;2023-06-10T10:12:47;101241.19;;;23.55;86.89
13734;BME280;43298;52.560;13.508;2023-06-10T10:15:13;101237.09;;;23.32;85.79
13734;BME280;43298;52.560;13.508;2023-06-10T10:17:52;101233.75;;;23.69;84.71
13734;BME280;43298;52.560;13.508;2023-06-10T10:20:24;101238.53;;;23.85;84.66
13734;BME280;43298;52.560;13.508;2023-06-10T10:22:52;101233.41;;;23.53;82.55
13734;BME280;43298;52.560;13.508;2023-06-10T10:25:34;101236.53;;;23.68;81.90
13734;BME280;43298;52.560;13.508;2023-06-10T10:28:12;101245.56;;;23.35;82.33
13734;BME280;43298;52.560;13.508;2023-06-10T10:30:49;101238.47;;;23.26;83.25
13734;BME280;43298;52.560;13.508;2023-06-10T10:33:23;101235.00;;;23.35;82.03
13734;BME280;43298;52.560;13.508;2023-06-10T10:35:51;101218.63;;;23.32;80.97
13734;BME280;43298;52.560;13.508;2023-06-10T10:38:19;101215.75;;;23.44;79.79
13734;BME280;43298;52.560;13.508;2023-06-10T10:40:47;101190.09;;;23.75;79.43
13734;BME280;43298;52.560;13.508;2023-06-10T10:43:14;101191.25;;;23.91;78.32
13734;BME280;43298;52.560;13.508;2023-06-10T10:45:41;101192.69;;;23.56;78.26
13734;BME280;43298;52.560;13.508;2023-06-10T10:48:10;101182.97;;;23.47;79.33
13734;BME280;43298;52.560;13.508;2023-06-10T10:50:38;101185.34;;;23.69;78.03
13734;BME280;43298;52.560;13.508;2023-06-10T10:53:05;101186.63;;;23.74;79.07
13734;BME280;43298;52.560;13.508;2023-06-10T10:55:31;101187.84;;;23.51;80.64
13734;BME280;43298;52.560;13.508;2023-06-10T11:00:35;101185.16;;;24.19;78.35
13734;BME280;43298;52.560;13.508;2023-06-10T11:03:06;101177.31;;;24.46;76.43
13734;BME280;43298;52.560;13.508;2023-06-10T11:05:44;101180.44;;;24.97;75.13
13734;BME280;43298;52.560;13.508;2023-06-10T11:08:14;101178.34;;;25.55;72.52
13734;BME280;43298;52.560;13.508;2023-06-10T11:10:50;101181.00;;;25.55;72.55
13734;BME280;43298;52.560;13.508;2023-06-10T11:13:21;101169.19;;;25.49;70.85
13734;BME280;43298;52.560;13.508;2023-06-10T11:15:49;101181.81;;;25.28;70.78
13734;BME280;43298;52.560;13.508;2023-06-10T11:18:29;101186.13;;;25.83;72.25
13734;BME280;43298;52.560;13.508;2023-06-10T11:21:05;101185.94;;;25.50;77.06
13734;BME280;43298;52.560;13.508;2023-06-10T11:23:33;101190.00;;;25.89;79.88
13734;BME280;43298;52.560;13.508;2023-06-10T11:31:44;101194.38;;;25.26;91.60
13734;BME280;43298;52.560;13.508;2023-06-10T11:34:11;101193.22;;;26.10;88.89
13734;BME280;43298;52.560;13.508;2023-06-10T11:36:42;101196.53;;;26.30;88.54
13734;BME280;43298;52.560;13.508;2023-06-10T11:39:11;101189.28;;;26.57;88.26
13734;BME280;43298;52.560;13.508;2023-06-10T11:41:39;101196.97;;;27.19;81.98
13734;BME280;43298;52.560;13.508;2023-06-10T11:44:14;101198.59;;;26.79;82.82
13734;BME280;43298;52.560;13.508;2023-06-10T11:46:41;101187.06;;;26.27;83.63
13734;BME280;43298;52.560;13.508;2023-06-10T11:49:11;101197.53;;;26.97;80.38
13734;BME280;43298;52.560;13.508;2023-06-10T11:51:38;101196.56;;;27.32;79.81
13734;BME280;43298;52.560;13.508;2023-06-10T11:54:08;101195.63;;;27.15;78.16
13734;BME280;43298;52.560;13.508;2023-06-10T11:56:35;101190.44;;;27.39;77.02
13734;BME280;43298;52.560;13.508;2023-06-10T11:59:06;101194.66;;;27.50;75.60
13734;BME280;43298;52.560;13.508;2023-06-10T12:01:35;101186.91;;;29.01;73.52
13734;BME280;43298;52.560;13.508;2023-06-10T12:04:11;101182.66;;;28.35;69.52
13734;BME280;43298;52.560;13.508;2023-06-10T12:06:43;101176.09;;;29.02;65.27
13734;BME280;43298;52.560;13.508;2023-06-10T12:09:27;101176.88;;;29.57;64.59
13734;BME280;43298;52.560;13.508;2023-06-10T12:12:04;101176.13;;;29.41;60.93
13734;BME280;43298;52.560;13.508;2023-06-10T12:14:58;101176.53;;;29.22;60.75
13734;BME280;43298;52.560;13.508;2023-06-10T12:19:55;101172.72;;;29.16;57.44
13734;BME280;43298;52.560;13.508;2023-06-10T12:22:21;101170.97;;;28.85;59.31
13734;BME280;43298;52.560;13.508;2023-06-10T12:25:05;101162.56;;;29.12;60.04
13734;BME280;43298;52.560;13.508;2023-06-10T12:27:34;101163.78;;;29.70;61.18
13734;BME280;43298;52.560;13.508;2023-06-10T12:30:02;101157.88;;;29.60;62.04
13734;BME280;43298;52.560;13.508;2023-06-10T12:32:46;101158.09;;;29.43;64.53
13734;BME280;43298;52.560;13.508;2023-06-10T12:35:16;101160.38;;;29.54;65.69
13734;BME280;43298;52.560;13.508;2023-06-10T12:37:54;101153.66;;;29.88;65.95
13734;BME280;43298;52.560;13.508;2023-06-10T12:42:58;101145.88;;;29.64;66.12
13734;BME280;43298;52.560;13.508;2023-06-10T12:45:39;101142.72;;;30.28;63.08
13734;BME280;43298;52.560;13.508;2023-06-10T12:48:17;101136.94;;;30.54;63.27
13734;BME280;43298;52.560;13.508;2023-06-10T12:50:44;101141.34;;;30.10;63.27
13734;BME280;43298;52.560;13.508;2023-06-10T12:53:11;101134.88;;;30.27;62.83
13734;BME280;43298;52.560;13.508;2023-06-10T12:55:38;101141.97;;;30.34;61.42